Tiempo atmosférico en la estación meteorológica de Motril, Puerto, Granada (3 m.)



Fecha
DESCASC
Temp. máxima en grados centígrados (hora)
DESCASC
Temp. mínima en grados centígrados (hora)
DESCASC
Temp. media en grados centígrados
DESCASC
Racha de viento máxima en m/sg (hora)
DESCASC
Velocidad máxima media en intervalos de 10 minutos(hora)
DESCASC
Precipitaciones diarias en mm
DESCASC
Precipitaciones de 00:00 a 06:00 en mm
DESCASC
Precipitaciones de 06:00 a 12:00 en mm
DESCASC
Precipitaciones de 12:00 a 18:00 en mm
DESCASC
Precipitaciones de 18:00 a 24:00 en mm
DESCASC
23-06-2019 27.1 (14:30) 18.7 (06:50) 22.9 4.72 (17:00) 3.06 (16:30) 0 0 0 0 0
22-06-2019 26.3 (14:10) 18.1 (06:20) 22.2 6.94 (16:00) 5.28 (16:20) 0 0 0 0 0
21-06-2019 27 (13:00) 18 (06:40) 22.5 7.5 (01:50) 4.72 (10:00) 0 0 0 0 0
20-06-2019 26.8 (17:40) 19.4 (00:00) 23.1 11.67 (19:10) 7.22 (19:30) 0 0 0 0 0
19-06-2019 -- (--) -- (--) -- -- (--) -- (--) -- 0 -- -- 0
18-06-2019 26.6 (12:30) 16.7 (00:00) 21.7 5.56 (19:00) 2.78 (10:40) 0 0 0 0 0
17-06-2019 25.9 (14:00) 16.4 (00:00) 21.1 4.72 (16:40) 2.78 (17:20) 0 0 0 0 0
16-06-2019 25.1 (19:00) 15.2 (00:00) 20.2 5 (17:20) 3.06 (09:40) 0 0 0 0 0
15-06-2019 25.5 (10:50) 17 (00:00) 21.3 6.67 (11:20) 3.89 (11:00) 0 0 0 0 0
14-06-2019 23.4 (14:30) 18.2 (00:00) 20.8 15.28 (11:30) 9.17 (09:50) 0 0 0 0 0
13-06-2019 26 (14:20) 16.9 (00:00) 21.4 7.5 (11:50) 3.61 (11:40) 0 0 0 0 0
12-06-2019 22.8 (11:20) 18.7 (00:00) 20.8 14.44 (00:20) 8.89 (00:20) 0 0 0 0 0
11-06-2019 24.5 (11:10) 16.9 (00:00) 20.7 17.22 (17:00) 10 (17:00) 0 0 0 0 0
10-06-2019 27.8 (09:10) 18 (00:00) 22.9 12.5 (13:40) 7.22 (14:00) 0 0 0 0 0
09-06-2019 25.2 (12:40) 19.8 (00:00) 22.5 9.72 (15:40) 5 (20:40) 0 0 0 0 0
08-06-2019 24.5 (16:50) 17.3 (00:00) 20.9 9.72 (11:30) 8.06 (11:30) 0 0 0 0 0
07-06-2019 26.7 (09:30) 15.9 (00:00) 21.3 11.11 (12:10) 6.94 (12:10) 0 0 0 0 0
06-06-2019 25.8 (09:00) 17.9 (00:00) 21.8 8.89 (20:40) 5 (20:30) 0 0 0 0 0
05-06-2019 26.5 (10:50) 19.3 (00:00) 22.9 13.89 (18:40) 8.61 (18:00) 0 0 0 0 0
04-06-2019 27 (12:40) 15.7 (00:00) 21.3 5 (14:30) 3.06 (13:50) 0 0 0 0 0
03-06-2019 26 (09:20) 16.5 (00:00) 21.3 4.17 (12:50) 2.78 (12:50) 0 0 0 0 0
02-06-2019 26.2 (12:00) 15.8 (00:00) 21 5.28 (12:50) 3.33 (12:40) 0 0 0 0 0
01-06-2019 26.1 (12:30) 16.4 (00:00) 21.3 8.89 (20:20) 7.22 (20:40) 0 0 0 0 0
31-05-2019 26.5 (10:50) 15.6 (00:00) 21.1 12.78 (14:10) 9.72 (14:10) 0 0 0 0 0
30-05-2019 23.4 (14:50) 16.3 (00:00) 19.8 12.5 (14:40) 8.61 (16:40) 0 0 0 0 0
29-05-2019 26.1 (10:40) 18.2 (00:00) 22.2 12.78 (14:00) 9.72 (16:20) 0 0 0 0 0
28-05-2019 24.5 (09:40) 17.8 (00:00) 21.1 10 (14:40) 8.06 (13:20) 0 0 0 0 0
27-05-2019 26.5 (13:50) 16 (00:00) 21.3 4.44 (14:30) 2.78 (14:30) 0 0 0 0 0
26-05-2019 25.4 (12:30) 16 (00:00) 20.7 4.17 (10:20) 3.06 (10:20) 0 0 0 0 0

Gráficas

Temp. máximas Temp. mínimas Temp. medias Precipitaciones Rachas de viento máximas Velocidades máximas media en intervalos de 10 minutos

Datos horarios

Fecha y hora oficial Temperatura (ºC) Velocidad del viento (km/h) Dirección del viento Racha (km/h) Dirección de racha Precipitación (mm) Presión (hPa) Tendencia (hPa) Humedad (%)
2019-06-24 23:00:00 21.9 3 Sudoeste 12 Noroeste 0 -- -- 79
2019-06-24 22:00:00 22.7 6 Oeste 11 Oeste 0 -- -- 75
2019-06-24 21:00:00 23.5 5 Oeste 14 Sudoeste 0 -- -- 73
2019-06-24 20:00:00 25.6 6 Sudoeste 12 Sudoeste 0 -- -- 66
2019-06-24 19:00:00 26.4 6 Sur 13 Sudoeste 0 -- -- 63
2019-06-24 18:00:00 26.4 7 Sudoeste 17 Sudoeste 0 -- -- 62
2019-06-24 17:00:00 25.9 9 Sudoeste 17 Sudoeste 0 -- -- 65
2019-06-24 16:00:00 25.8 8 Sudoeste 18 Sudoeste 0 -- -- 63
2019-06-24 15:00:00 25.3 12 Sudoeste 18 Sudoeste 0 -- -- 64
2019-06-24 14:00:00 26.9 8 Sudoeste 18 Sudoeste 0 -- -- 61
2019-06-24 13:00:00 27 9 Sudoeste 18 Sudoeste 0 -- -- 60
2019-06-24 12:00:00 27.4 9 Sudoeste 14 Sudoeste 0 -- -- 58
2019-06-24 11:00:00 27.8 7 Sudoeste 10 Sudoeste 0 -- -- 57
2019-06-24 10:00:00 27.5 4 Sur 10 Sudoeste 0 -- -- 57
2019-06-24 09:00:00 25.3 3 Oeste 5 Oeste 0 -- -- 63
2019-06-24 08:00:00 21.2 4 Sudoeste 6 Sudoeste 0 -- -- 80
2019-06-24 07:00:00 19.3 2 Este 5 Este 0 -- -- 83
2019-06-24 06:00:00 19.6 2 Sudeste 4 Sudeste 0 -- -- 82
2019-06-24 05:00:00 19.6 2 Norte 6 Sudoeste 0 -- -- 80
2019-06-24 04:00:00 19.8 0 Calma 5 Nordeste 0 -- -- 80
2019-06-24 03:00:00 20 4 Nordeste 6 Nordeste 0 -- -- 80
2019-06-24 02:00:00 20.3 0 Calma 3 Nordeste 0 -- -- 81
2019-06-24 01:00:00 20.7 0 Calma 4 Norte 0 -- -- 80
2019-06-24 00:00:00 21.5 3 Noroeste 5 Noroeste 0 -- -- 79
2019-06-23 23:00:00 21.8 4 Sur 6 Sur 0 -- -- 77
2019-06-23 22:00:00 22.5 3 Noroeste 15 Oeste 0 -- -- 72
2019-06-23 21:00:00 23.9 7 Oeste 15 Oeste 0 -- -- 69
2019-06-23 20:00:00 25.4 6 Oeste 15 Sudoeste 0 -- -- 66
2019-06-23 19:00:00 26.1 8 Sudoeste 15 Sudoeste 0 -- -- 65
2019-06-23 18:00:00 26.1 9 Sudoeste 17 Oeste 0 -- -- 63
2019-06-23 17:00:00 26 10 Sudoeste 17 Sudoeste 0 -- -- 63
2019-06-23 16:00:00 25.8 8 Sudoeste 15 Sur 0 -- -- 66
2019-06-23 15:00:00 26.4 7 Sudoeste 13 Sudoeste 0 -- -- 63
2019-06-23 14:00:00 26 6 Sudoeste 10 Sudoeste 0 -- -- 66
2019-06-23 13:00:00 24.1 5 Sudeste 11 Sur 0 -- -- 72
2019-06-23 12:00:00 24.6 6 Sur 9 Sur 0 -- -- 69
2019-06-23 11:00:00 24.2 4 Sur 7 Sur 0 -- -- 68
2019-06-23 10:00:00 23.5 4 Sur 6 Sur 0 -- -- 70
2019-06-23 09:00:00 23.8 0 Calma 3 Sudeste 0 -- -- 69
2019-06-23 08:00:00 20.6 2 Sudeste 4 Sudeste 0 -- -- 83
2019-06-23 07:00:00 18.7 0 Calma 2 Nordeste 0 -- -- 86
2019-06-23 06:00:00 19 0 Calma 3 Norte 0 -- -- 85
2019-06-23 05:00:00 19.2 2 Norte 4 Nordeste 0 -- -- 84
2019-06-23 04:00:00 19.6 0 Calma 2 Sudeste 0 -- -- 84
2019-06-23 03:00:00 19.9 0 Calma 5 Oeste 0 -- -- 83
2019-06-23 02:00:00 21.1 5 Noroeste 8 Noroeste 0 -- -- 80
2019-06-23 01:00:00 21.1 2 Norte 5 Oeste 0 -- -- 80
2019-06-23 00:00:00 21.3 2 Sudoeste 5 Sur 0 -- -- 81
2019-06-22 23:00:00 21.6 3 Sur 5 Noroeste 0 -- -- 78
2019-06-22 22:00:00 21.9 3 Sudoeste 10 Sudoeste 0 -- -- 78
2019-06-22 21:00:00 22.5 6 Sudoeste 13 Sudoeste 0 -- -- 77
2019-06-22 20:00:00 24.2 8 Sudoeste 17 Sur 0 -- -- 74
2019-06-22 19:00:00 24.9 11 Sur 19 Sur 0 -- -- 71
2019-06-22 18:00:00 23.8 13 Sudeste 24 Sudeste 0 -- -- 75
2019-06-22 17:00:00 23.3 15 Sudeste 25 Sudeste 0 -- -- 76
2019-06-22 16:00:00 23.4 17 Sudeste 25 Sudeste 0 -- -- 75
2019-06-22 15:00:00 24.1 15 Sudeste 24 Sudeste 0 -- -- 71
2019-06-22 14:00:00 26.1 7 Sur 17 Sur 0 -- -- 64
2019-06-22 13:00:00 25.7 10 Sur 21 Sur 0 -- -- 65
2019-06-22 12:00:00 24.9 7 Sudoeste 13 Sudoeste 0 -- -- 68
2019-06-22 11:00:00 24 8 Sudoeste 14 Oeste 0 -- -- 74
2019-06-22 10:00:00 23.3 8 Sudoeste 13 Sudoeste 0 -- -- 74
2019-06-22 09:00:00 23.9 4 Sudoeste 8 Sudoeste 0 -- -- 69
2019-06-22 08:00:00 20.7 6 Sudoeste 12 Oeste 0 -- -- 82
2019-06-22 07:00:00 18.3 5 Sudoeste 10 Sudoeste 0 -- -- 84
2019-06-22 06:00:00 18.8 4 Oeste 8 Oeste 0 -- -- 87
2019-06-22 05:00:00 18.3 3 Sudeste 5 Sudeste 0 -- -- 85
2019-06-22 04:00:00 19.5 2 Noroeste 9 Noroeste 0 -- -- 85
2019-06-22 03:00:00 19.8 5 Sudoeste 13 Noroeste 0 -- -- 84
2019-06-22 02:00:00 20 7 Noroeste 19 Sudeste 0 -- -- 85
2019-06-22 01:00:00 19.9 0 Calma 15 Sur 0 -- -- 82
2019-06-22 00:00:00 20.2 8 Sur 15 Sur 0 -- -- 83
2019-06-21 23:00:00 20.5 2 Sur 4 Sur 0 -- -- 77
2019-06-21 22:00:00 20.8 3 Sur 5 Sur 0 -- -- 77
2019-06-21 21:00:00 22.2 3 Sudeste 10 Sudoeste 0 -- -- 71
2019-06-21 20:00:00 24 6 Sur 10 Sur 0 -- -- 65
2019-06-21 19:00:00 25 6 Sur 15 Sudoeste 0 -- -- 61
2019-06-21 18:00:00 25.5 8 Sudoeste 18 Sudoeste 0 -- -- 60
2019-06-21 17:00:00 24.7 10 Sudoeste 18 Sudoeste 0 -- -- 63
2019-06-21 16:00:00 25.3 8 Sudoeste 16 Sudoeste 0 -- -- 61
2019-06-21 15:00:00 24.1 10 Sudoeste 17 Sudoeste 0 -- -- 65
2019-06-21 14:00:00 25 9 Sudoeste 15 Sudoeste 0 -- -- 63
2019-06-21 13:00:00 27 6 Sudoeste 11 Sudoeste 0 -- -- 57
2019-06-21 12:00:00 24.6 7 Sur 14 Sudeste 0 -- -- 65
2019-06-21 11:00:00 21.4 13 Sudeste 22 Sudeste 0 -- -- 77
2019-06-21 10:00:00 21.7 17 Sudeste 22 Sudeste 0 -- -- 74
2019-06-21 09:00:00 23.6 3 Sur 8 Este 0 -- -- 67
2019-06-21 08:00:00 20.6 3 Este 8 Oeste 0 -- -- 81
2019-06-21 07:00:00 18.4 3 Sur 9 Sudoeste 0 -- -- 86
2019-06-21 06:00:00 18.5 6 Este 18 Oeste 0 -- -- 84
2019-06-21 05:00:00 19 10 Oeste 20 Oeste 0 -- -- 83
2019-06-21 04:00:00 19.1 4 Oeste 17 Sudoeste 0 -- -- 81
2019-06-21 03:00:00 19.4 11 Oeste 24 Oeste 0 -- -- 80
2019-06-21 02:00:00 19.7 16 Oeste 27 Oeste 0 -- -- 78
2019-06-21 01:00:00 20.2 9 Oeste 21 Oeste 0 -- -- 76
2019-06-21 00:00:00 20.8 14 Oeste 22 Oeste 0 -- -- 71
2019-06-20 23:00:00 21.6 13 Oeste 24 Noroeste 0 -- -- 66
2019-06-20 22:00:00 22.6 12 Noroeste 28 Oeste 0 -- -- 61
2019-06-20 21:00:00 24.1 21 Oeste 41 Oeste 0 -- -- 55
2019-06-20 20:00:00 25.9 24 Oeste 42 Oeste 0 -- -- 49
2019-06-20 19:00:00 26.6 23 Oeste 41 Oeste 0 -- -- 47
2019-06-20 18:00:00 26.5 20 Oeste 40 Sudoeste 0 -- -- 49
2019-06-20 17:00:00 26.4 19 Oeste 37 Sudoeste 0 -- -- 52
2019-06-20 16:00:00 24.5 12 Sudoeste 34 Oeste 0 -- -- 62
2019-06-20 15:00:00 25.4 18 Oeste 38 Oeste 0 -- -- 57
2019-06-20 14:00:00 26 11 Oeste 32 Sudoeste 0 -- -- 58
2019-06-20 13:00:00 26.1 13 Oeste 30 Oeste 0 -- -- 59
2019-06-20 12:00:00 25.6 13 Oeste 27 Oeste 0 -- -- 60
2019-06-20 11:00:00 24.8 15 Oeste 33 Oeste 0 -- -- 63
2019-06-20 10:00:00 24.3 13 Oeste 31 Oeste 0 -- -- 66
2019-06-20 09:00:00 23.3 18 Oeste 28 Oeste 0 -- -- 70
2019-06-20 08:00:00 21.9 11 Oeste 22 Oeste 0 -- -- 74
2019-06-20 07:00:00 20 12 Oeste 20 Oeste 0 -- -- 81
2019-06-20 06:00:00 19.6 8 Oeste 15 Oeste 0 -- -- 85
2019-06-20 05:00:00 19.5 3 Nordeste 17 Oeste 0 -- -- 85
2019-06-20 04:00:00 20.1 8 Noroeste 12 Noroeste 0 -- -- 83
2019-06-20 03:00:00 20.1 3 Oeste 8 Oeste 0 -- -- 83
2019-06-20 02:00:00 20.7 3 Noroeste 9 Oeste 0 -- -- 79
2019-06-20 01:00:00 21.4 5 Oeste 12 Oeste 0 -- -- 76
2019-06-20 00:00:00 21.6 4 Noroeste 8 Oeste 0 -- -- 72
2019-06-19 23:00:00 22.7 4 Noroeste 15 Oeste 0 -- -- 69
2019-06-19 22:00:00 23.2 6 Oeste 13 Oeste 0 -- -- 67
2019-06-19 21:00:00 24.7 9 Oeste 18 Oeste 0 -- -- 60
2019-06-19 20:00:00 26.4 8 Oeste 19 Oeste 0 -- -- 55
2019-06-19 19:00:00 26.1 5 Sur 25 Oeste 0 -- -- 59
2019-06-19 18:00:00 26.2 5 Sur 14 Sur 0 -- -- 60
2019-06-19 17:00:00 25.9 9 Sur 18 Oeste 0 -- -- 60
2019-06-19 16:00:00 26.6 4 Sur 17 Sudoeste 0 -- -- 55
2019-06-19 15:00:00 25.7 8 Sudoeste 16 Sudoeste 0 -- -- 57
2019-06-19 14:00:00 -- -- -- -- -- -- -- -- --
2019-06-19 13:00:00 -- -- -- -- -- -- -- -- --
2019-06-19 12:00:00 -- -- -- -- -- -- -- -- --
2019-06-19 11:00:00 -- -- -- -- -- -- -- -- --
2019-06-19 10:00:00 -- -- -- -- -- -- -- -- --
2019-06-19 09:00:00 -- -- -- -- -- -- -- -- --
2019-06-19 08:00:00 -- -- -- -- -- -- -- -- --
2019-06-19 07:00:00 -- -- -- -- -- -- -- -- --
2019-06-19 06:00:00 17.6 -- -- -- -- 0 -- -- --
2019-06-19 05:00:00 19.2 5 Sudeste 13 Sudeste 0 -- -- 84
2019-06-19 04:00:00 18.8 3 Noroeste 7 Norte 0 -- -- 79
2019-06-19 03:00:00 18.4 4 Norte 8 Oeste 0 -- -- 80
2019-06-19 02:00:00 19.2 -- -- -- -- 0 -- -- 77
2019-06-19 01:00:00 19.9 4 Noroeste 12 Oeste 0 -- -- 73
2019-06-19 00:00:00 20.3 0 Calma 11 Oeste 0 -- -- 73
2019-06-18 23:00:00 20.8 6 Noroeste 12 Oeste 0 -- -- 69
2019-06-18 22:00:00 21.4 3 Oeste 13 Oeste 0 -- -- 67
2019-06-18 21:00:00 23.9 4 Noroeste 14 Oeste 0 -- -- 58
2019-06-18 20:00:00 25 5 Sudoeste 18 Oeste 0 -- -- 59
2019-06-18 19:00:00 26 10 Oeste 20 Oeste 0 -- -- 53
2019-06-18 18:00:00 25.6 7 Sudoeste 18 Sudoeste 0 -- -- 57
2019-06-18 17:00:00 25.4 7 Sudoeste 14 Sudoeste 0 -- -- 60
2019-06-18 16:00:00 24.9 7 Sur 14 Sudoeste 0 -- -- 65
2019-06-18 15:00:00 25.7 7 Sur 14 Sudoeste 0 -- -- 61
2019-06-18 14:00:00 26.4 7 Sudoeste 13 Sudoeste 0 -- -- 59
2019-06-18 13:00:00 25.6 7 Sur 12 Sudoeste 0 -- -- 62
2019-06-18 12:00:00 25.2 10 Sudoeste 15 Sudoeste 0 -- -- 63
2019-06-18 11:00:00 23.9 10 Sudoeste 17 Sudoeste 0 -- -- 65
2019-06-18 10:00:00 24.4 8 Oeste 15 Oeste 0 -- -- 64
2019-06-18 09:00:00 25 0 Calma 6 Norte 0 -- -- 54
2019-06-18 08:00:00 20.8 0 Calma 4 Oeste 0 -- -- 65
2019-06-18 07:00:00 17.4 2 Norte 8 Sudoeste 0 -- -- 71
2019-06-18 06:00:00 16.7 0 Calma 5 Nordeste 0 -- -- 72
2019-06-18 05:00:00 16.8 0 Calma 4 Norte 0 -- -- 74
2019-06-18 04:00:00 16.9 0 Calma 3 Nordeste 0 -- -- 77
2019-06-18 03:00:00 17.3 0 Calma 5 Norte 0 -- -- 76
2019-06-18 02:00:00 18.2 3 Este 5 Noroeste 0 -- -- 81
2019-06-18 01:00:00 19.5 3 Noroeste 5 Sur 0 -- -- 81
2019-06-18 00:00:00 20.2 3 Sudoeste 4 Sudoeste 0 -- -- 81
2019-06-17 23:00:00 20.6 2 Nordeste 6 Oeste 0 -- -- 78
2019-06-17 22:00:00 21.8 4 Oeste 8 Oeste 0 -- -- 74
2019-06-17 21:00:00 23.1 6 Oeste 14 Oeste 0 -- -- 70
2019-06-17 20:00:00 24.5 8 Sudoeste 13 Sudoeste 0 -- -- 65
2019-06-17 19:00:00 24.6 9 Sudoeste 15 Sudoeste 0 -- -- 65
2019-06-17 18:00:00 24.6 8 Sudoeste 17 Sudoeste 0 -- -- 66
2019-06-17 17:00:00 24.5 10 Sudoeste 17 Sudoeste 0 -- -- 65
2019-06-17 16:00:00 25.1 8 Sudoeste 17 Sudoeste 0 -- -- 63
2019-06-17 15:00:00 25 9 Sudoeste 16 Sudoeste 0 -- -- 61
2019-06-17 14:00:00 25.9 8 Sudoeste 15 Sudoeste 0 -- -- 56
2019-06-17 13:00:00 24.5 8 Sur 14 Sur 0 -- -- 61
2019-06-17 12:00:00 24.6 9 Sur 13 Sur 0 -- -- 64
2019-06-17 11:00:00 24.7 8 Sur 12 Sur 0 -- -- 62
2019-06-17 10:00:00 24.5 6 Sur 9 Sur 0 -- -- 60
2019-06-17 09:00:00 24.5 0 Calma 3 Nordeste 0 -- -- 61
2019-06-17 08:00:00 19.4 3 Nordeste 6 Nordeste 0 -- -- 76
2019-06-17 07:00:00 16.5 2 Nordeste 6 Norte 0 -- -- 82
2019-06-17 06:00:00 16.8 0 Calma 4 Nordeste 0 -- -- 80
2019-06-17 05:00:00 17.4 0 Calma 4 Oeste 0 -- -- 77
2019-06-17 04:00:00 17.8 0 Calma 6 Nordeste 0 -- -- 76
2019-06-17 03:00:00 18 5 Nordeste 6 Norte 0 -- -- 74
2019-06-17 02:00:00 18.1 0 Calma 3 Nordeste 0 -- -- 74
2019-06-17 01:00:00 18.7 2 Nordeste 4 Sudeste 0 -- -- 74
2019-06-17 00:00:00 19.8 4 Sudeste 6 Sudeste 0 -- -- 73
2019-06-16 23:00:00 20.7 3 Noroeste 7 Oeste 0 -- -- 67
2019-06-16 22:00:00 21.4 4 Oeste 8 Sudoeste 0 -- -- 67
2019-06-16 21:00:00 23.2 4 Oeste 11 Noroeste 0 -- -- 59
2019-06-16 20:00:00 24.2 7 Sudoeste 18 Oeste 0 -- -- 57
2019-06-16 19:00:00 25.1 8 Sudoeste 15 Sudoeste 0 -- -- 58
2019-06-16 18:00:00 24.8 8 Sudoeste 18 Sur 0 -- -- 57
2019-06-16 17:00:00 24.4 8 Sudoeste 18 Sudoeste 0 -- -- 62
2019-06-16 16:00:00 24.5 7 Sudoeste 17 Sudoeste 0 -- -- 64
2019-06-16 15:00:00 24.6 8 Sudoeste 17 Sudoeste 0 -- -- 61
2019-06-16 14:00:00 24.1 5 Sur 11 Sudoeste 0 -- -- 65
2019-06-16 13:00:00 22.2 6 Sudoeste 13 Sudoeste 0 -- -- 71
2019-06-16 12:00:00 22.4 7 Sudoeste 17 Oeste 0 -- -- 69
2019-06-16 11:00:00 22.6 9 Sur 13 Sur 0 -- -- 64
2019-06-16 10:00:00 21.2 8 Sudeste 15 Sudeste 0 -- -- 69
2019-06-16 09:00:00 20.7 0 Calma 6 Sudeste 0 -- -- 65
2019-06-16 08:00:00 17 2 Norte 6 Norte 0 -- -- 75
2019-06-16 07:00:00 15.6 0 Calma 6 Sudeste 0 -- -- 78
2019-06-16 06:00:00 15.8 3 Este 6 Nordeste 0 -- -- 82
2019-06-16 05:00:00 16.7 0 Calma 7 Noroeste 0 -- -- 82
2019-06-16 04:00:00 16.5 3 Noroeste 6 Sudeste 0 -- -- 78
2019-06-16 03:00:00 17 2 Sudeste 6 Norte 0 -- -- 78
2019-06-16 02:00:00 17.2 2 Nordeste 6 Nordeste 0 -- -- 78
2019-06-16 01:00:00 17.6 4 Nordeste 6 Sudeste 0 -- -- 78
2019-06-16 00:00:00 18.8 3 Nordeste 5 Nordeste 0 -- -- 77
2019-06-15 23:00:00 19.7 3 Oeste 10 Sudoeste 0 -- -- 71
2019-06-15 22:00:00 20.2 3 Oeste 6 Sudoeste 0 -- -- 67
2019-06-15 21:00:00 21.6 2 Norte 9 Sudoeste 0 -- -- 61
2019-06-15 20:00:00 24 5 Sur 10 Sudoeste 0 -- -- 54
2019-06-15 19:00:00 23.2 6 Sur 10 Sur 0 -- -- 58
2019-06-15 18:00:00 23.4 6 Sur 12 Sudoeste 0 -- -- 56
2019-06-15 17:00:00 23.5 5 Sur 10 Sur 0 -- -- 57
2019-06-15 16:00:00 24 5 Sur 15 Sudoeste 0 -- -- 59
2019-06-15 15:00:00 23.9 8 Sudoeste 15 Sudoeste 0 -- -- 56
2019-06-15 14:00:00 23.5 7 Sur 13 Sur 0 -- -- 58
2019-06-15 13:00:00 24.7 6 Sur 18 Sudoeste 0 -- -- 54
2019-06-15 12:00:00 23.9 10 Sudoeste 24 Oeste 0 -- -- 53
2019-06-15 11:00:00 25.2 14 Oeste 23 Oeste 0 -- -- 45
2019-06-15 10:00:00 23.3 10 Oeste 21 Oeste 0 -- -- 55
2019-06-15 09:00:00 21.7 7 Oeste 16 Sudoeste 0 -- -- 60
2019-06-15 08:00:00 19.4 9 Oeste 18 Oeste 0 -- -- 56
2019-06-15 07:00:00 17.1 6 Oeste 17 Oeste 0 -- -- 75
2019-06-15 06:00:00 17.3 9 Oeste 20 Oeste 0 -- -- 79
2019-06-15 05:00:00 17.3 11 Oeste 21 Sudoeste 0 -- -- 80
2019-06-15 04:00:00 17.4 13 Oeste 23 Oeste 0 -- -- 81
2019-06-15 03:00:00 17.3 10 Oeste 18 Oeste 0 -- -- 80
2019-06-15 02:00:00 17.4 6 Oeste 10 Noroeste 0 -- -- 80
2019-06-15 01:00:00 17.8 5 Noroeste 12 Oeste 0 -- -- 79
2019-06-15 00:00:00 18.2 7 Oeste 15 Oeste 0 -- -- 76
2019-06-14 23:00:00 18.5 7 Oeste 21 Oeste 0 -- -- 72
2019-06-14 22:00:00 19 13 Oeste 26 Oeste 0 -- -- 68
2019-06-14 21:00:00 20.6 16 Oeste 33 Oeste 0 -- -- 58
2019-06-14 20:00:00 21.3 23 Oeste 43 Sudoeste 0 -- -- 52
2019-06-14 19:00:00 22.5 22 Oeste 40 Oeste 0 -- -- 50
2019-06-14 18:00:00 22.9 20 Oeste 39 Oeste 0 -- -- 52
2019-06-14 17:00:00 22.5 22 Oeste 41 Oeste 0 -- -- 55
2019-06-14 16:00:00 22.6 23 Oeste 42 Oeste 0 -- -- 56
2019-06-14 15:00:00 22.8 22 Oeste 40 Oeste 0 -- -- 56
2019-06-14 14:00:00 23 14 Oeste 40 Oeste 0 -- -- 55
2019-06-14 13:00:00 22.8 23 Oeste 45 Oeste 0 -- -- 54
2019-06-14 12:00:00 22.1 27 Oeste 55 Oeste 0 -- -- 55
2019-06-14 11:00:00 21.5 28 Oeste 50 Oeste 0 -- -- 57
2019-06-14 10:00:00 20.5 31 Oeste 51 Sudoeste 0 -- -- 62
2019-06-14 09:00:00 19 24 Oeste 40 Oeste 0 -- -- 69
2019-06-14 08:00:00 18.8 21 Oeste 37 Oeste 0 -- -- 80
2019-06-14 07:00:00 18.9 19 Oeste 31 Oeste 0 -- -- 88
2019-06-14 06:00:00 19.5 16 Oeste 32 Oeste 0 -- -- 85
2019-06-14 05:00:00 20.1 18 Oeste 31 Oeste 0 -- -- 78
2019-06-14 04:00:00 20.5 13 Oeste 23 Oeste 0 -- -- 74
2019-06-14 03:00:00 20.9 8 Noroeste 15 Oeste 0 -- -- 74
2019-06-14 02:00:00 20.6 9 Oeste 19 Oeste 0 -- -- 76
2019-06-14 01:00:00 20.7 3 Oeste 12 Sur 0 -- -- 75
2019-06-14 00:00:00 21.1 3 Sudoeste 8 Noroeste 0 -- -- 70
2019-06-13 23:00:00 21.2 4 Noroeste 9 Sudoeste 0 -- -- 72
2019-06-13 22:00:00 21 4 Sudoeste 10 Sudoeste 0 -- -- 71
2019-06-13 21:00:00 22.1 6 Sudoeste 10 Sudoeste 0 -- -- 65
2019-06-13 20:00:00 22.6 5 Sudoeste 13 Oeste 0 -- -- 63
2019-06-13 19:00:00 22.8 6 Sudoeste 14 Sudoeste 0 -- -- 63
2019-06-13 18:00:00 23.1 8 Sudoeste 16 Sudoeste 0 -- -- 62
2019-06-13 17:00:00 24.6 7 Sudoeste 18 Sudoeste 0 -- -- 59
2019-06-13 16:00:00 25 8 Sudoeste 18 Sudoeste 0 -- -- 58
2019-06-13 15:00:00 25.3 8 Sudoeste 19 Sudoeste 0 -- -- 56
2019-06-13 14:00:00 24.6 12 Sudoeste 20 Sudoeste 0 -- -- 57
2019-06-13 13:00:00 25.1 7 Sudoeste 21 Sudoeste 0 -- -- 58
2019-06-13 12:00:00 25.2 10 Sudoeste 27 Oeste 0 -- -- 56
2019-06-13 11:00:00 24 5 Sudoeste 15 Oeste 0 -- -- 61
2019-06-13 10:00:00 23.7 8 Oeste 16 Oeste 0 -- -- 61
2019-06-13 09:00:00 21.6 4 Oeste 7 Oeste 0 -- -- 73
2019-06-13 08:00:00 18.5 2 Norte 7 Nordeste 0 -- -- 82
2019-06-13 07:00:00 17.1 2 Sudeste 5 Norte 0 -- -- 86
2019-06-13 06:00:00 16.9 0 Calma 8 Sur 0 -- -- 86
2019-06-13 05:00:00 17.4 0 Calma 9 Noroeste 0 -- -- 85
2019-06-13 04:00:00 17.7 3 Noroeste 5 Noroeste 0 -- -- 84
2019-06-13 03:00:00 18.3 0 Calma 6 Noroeste 0 -- -- 83
2019-06-13 02:00:00 18.6 2 Norte 7 Oeste 0 -- -- 82
2019-06-13 01:00:00 19 2 Noroeste 9 Sudoeste 0 -- -- 82
2019-06-13 00:00:00 19.4 4 Sudoeste 8 Sudoeste 0 -- -- 79
2019-06-12 23:00:00 19.2 3 Noroeste 20 Sudeste 0 -- -- 81
2019-06-12 22:00:00 19 15 Sudeste 31 Sudeste 0 -- -- 82
2019-06-12 21:00:00 19.2 24 Sudeste 30 Sudeste 0 -- -- 80
2019-06-12 20:00:00 19.8 22 Sudeste 35 Sudeste 0 -- -- 77
2019-06-12 19:00:00 20.7 22 Sudeste 32 Sudeste 0 -- -- 71
2019-06-12 18:00:00 20.7 24 Sudeste 41 Sudeste 0 -- -- 71
2019-06-12 17:00:00 20.9 26 Sudeste 41 Sudeste 0 -- -- 68
2019-06-12 16:00:00 21 31 Sudeste 40 Sudeste 0 -- -- 67
2019-06-12 15:00:00 21.4 26 Sudeste 39 Sudeste 0 -- -- 65
2019-06-12 14:00:00 20.8 25 Sudeste 35 Sudeste 0 -- -- 65
2019-06-12 13:00:00 21.4 23 Sudeste 39 Sudeste 0 -- -- 62
2019-06-12 12:00:00 21.7 32 Sudeste 42 Sudeste 0 -- -- 59
2019-06-12 11:00:00 22.7 20 Sudeste 34 Este 0 -- -- 50
2019-06-12 10:00:00 21.7 15 Este 30 Este 0 -- -- 59
2019-06-12 09:00:00 20.1 17 Este 24 Este 0 -- -- 67
2019-06-12 08:00:00 19.9 8 Sudeste 20 Este 0 -- -- 69
2019-06-12 07:00:00 18.8 15 Este 25 Este 0 -- -- 74
2019-06-12 06:00:00 19 17 Este 28 Este 0 -- -- 74
2019-06-12 05:00:00 18.7 9 Este 34 Este 0 -- -- 76
2019-06-12 04:00:00 18.8 15 Este 45 Este 0 -- -- 78
2019-06-12 03:00:00 19.2 21 Este 41 Este 0 -- -- 78
2019-06-12 02:00:00 19.7 14 Este 43 Este 0 -- -- 78
2019-06-12 01:00:00 20.3 24 Este 52 Este 0 -- -- 72
2019-06-12 00:00:00 19.3 20 Sudeste 33 Sudeste 0 -- -- 73
2019-06-11 23:00:00 19.2 4 Noroeste 24 Oeste 0 -- -- 73
2019-06-11 22:00:00 19.6 22 Oeste 35 Oeste 0 -- -- 71
2019-06-11 21:00:00 20.5 20 Oeste 50 Oeste 0 -- -- 67
2019-06-11 20:00:00 22 27 Oeste 55 Oeste 0 -- -- 61
2019-06-11 19:00:00 23 28 Oeste 57 Oeste 0 -- -- 58
2019-06-11 18:00:00 24 36 Oeste 55 Oeste 0 -- -- 51
2019-06-11 17:00:00 24.1 36 Oeste 62 Sudoeste 0 -- -- 51
2019-06-11 16:00:00 24.2 33 Oeste 50 Oeste 0 -- -- 49
2019-06-11 15:00:00 23.6 18 Oeste 47 Oeste 0 -- -- 53
2019-06-11 14:00:00 23.1 27 Oeste 50 Sudoeste 0 -- -- 54
2019-06-11 13:00:00 22.9 29 Oeste 53 Oeste 0 -- -- 54
2019-06-11 12:00:00 23.8 21 Oeste 34 Oeste 0 -- -- 55
2019-06-11 11:00:00 24.3 12 Oeste 23 Sudoeste 0 -- -- 55
2019-06-11 10:00:00 21.5 10 Sudoeste 21 Sudoeste 0 -- -- 68
2019-06-11 09:00:00 21.5 7 Sudoeste 19 Sudoeste 0 -- -- 66
2019-06-11 08:00:00 19.9 9 Sudoeste 15 Sudoeste 0 -- -- 70
2019-06-11 07:00:00 17.7 6 Noroeste 12 Noroeste 0 -- -- 76
2019-06-11 06:00:00 17.1 8 Oeste 15 Oeste 0 -- -- 81
2019-06-11 05:00:00 17 3 Sudoeste 8 Oeste 0 -- -- 83
2019-06-11 04:00:00 17.4 3 Noroeste 15 Oeste 0 -- -- 81
2019-06-11 03:00:00 17.8 6 Oeste 13 Oeste 0 -- -- 80
2019-06-11 02:00:00 18.1 7 Oeste 12 Oeste 0 -- -- 79
2019-06-11 01:00:00 17.8 2 Nordeste 6 Sudoeste 0 -- -- 76
2019-06-11 00:00:00 19.1 3 Oeste 12 Noroeste 0 -- -- 73
2019-06-10 23:00:00 19.4 3 Noroeste 17 Oeste 0 -- -- 71
2019-06-10 22:00:00 20.2 11 Oeste 22 Oeste 0 -- -- 67
2019-06-10 21:00:00 22.4 13 Oeste 24 Noroeste 0 -- -- 57
2019-06-10 20:00:00 23.5 13 Oeste 34 Sudoeste 0 -- -- 57
2019-06-10 19:00:00 23.6 12 Oeste 35 Oeste 0 -- -- 55
2019-06-10 18:00:00 24.2 15 Oeste 36 Sudoeste 0 -- -- 54
2019-06-10 17:00:00 22.2 13 Sudoeste 41 Oeste 0 -- -- 62
2019-06-10 16:00:00 23.7 20 Oeste 37 Sudoeste 0 -- -- 57
2019-06-10 15:00:00 23.8 20 Oeste 43 Oeste 0 -- -- 57
2019-06-10 14:00:00 23.6 26 Oeste 45 Oeste 0 -- -- 56
2019-06-10 13:00:00 23.9 24 Oeste 43 Sudoeste 0 -- -- 55
2019-06-10 12:00:00 23.9 21 Oeste 36 Oeste 0 -- -- 55
2019-06-10 11:00:00 24.1 19 Oeste 35 Oeste 0 -- -- 53
2019-06-10 10:00:00 23.2 10 Oeste 22 Sudoeste 0 -- -- 59
2019-06-10 09:00:00 27.7 6 Noroeste 30 Norte 0 -- -- 30
2019-06-10 08:00:00 23.1 16 Norte 31 Noroeste 0 -- -- 36
2019-06-10 07:00:00 22.3 11 Norte 27 Norte 0 -- -- 37
2019-06-10 06:00:00 22.5 11 Noroeste 41 Norte 0 -- -- 37
2019-06-10 05:00:00 23.1 13 Noroeste 35 Noroeste 0 -- -- 35
2019-06-10 04:00:00 23.2 11 Noroeste 31 Noroeste 0 -- -- 35
2019-06-10 03:00:00 18.4 3 Sudoeste 8 Nordeste 0 -- -- 75
2019-06-10 02:00:00 18.2 3 Norte 12 Oeste 0 -- -- 73
2019-06-10 01:00:00 18.7 0 Calma 21 Oeste 0 -- -- 71
2019-06-10 00:00:00 19.8 15 Oeste 27 Oeste 0 -- -- 67
2019-06-09 23:00:00 20.6 13 Oeste 22 Oeste 0 -- -- 63
2019-06-09 22:00:00 21.3 7 Oeste 27 Oeste 0 -- -- 61
2019-06-09 21:00:00 22.5 15 Oeste 32 Oeste 0 -- -- 58
2019-06-09 20:00:00 22.4 9 Sudoeste 26 Oeste 0 -- -- 60
2019-06-09 19:00:00 23.4 10 Sudoeste 20 Oeste 0 -- -- 58
2019-06-09 18:00:00 22.5 9 Sudoeste 25 Sudoeste 0 -- -- 69
2019-06-09 17:00:00 23.2 11 Sudoeste 31 Oeste 0 -- -- 66
2019-06-09 16:00:00 23.7 15 Oeste 35 Oeste 0 -- -- 68
2019-06-09 15:00:00 23.8 12 Sudoeste 26 Sudoeste 0 -- -- 70
2019-06-09 14:00:00 23.7 10 Sudoeste 23 Sudoeste 0 -- -- 69
2019-06-09 13:00:00 24.9 11 Oeste 27 Sudoeste 0 -- -- 64
2019-06-09 12:00:00 23.9 9 Sudoeste 20 Sudoeste 0 -- -- 68
2019-06-09 11:00:00 24.9 9 Sudoeste 16 Sudoeste 0 -- -- 66
2019-06-09 10:00:00 23.6 5 Oeste 14 Oeste 0 -- -- 67
2019-06-09 09:00:00 21.3 2 Sudoeste 13 Oeste 0 -- -- 74
2019-06-09 08:00:00 20.7 6 Oeste 9 Oeste 0 -- -- 79
2019-06-09 07:00:00 20.4 6 Oeste 10 Oeste 0 -- -- 82
2019-06-09 06:00:00 20.4 5 Oeste 9 Oeste 0 -- -- 83
2019-06-09 05:00:00 20.2 4 Sudoeste 8 Oeste 0 -- -- 83
2019-06-09 04:00:00 20.4 3 Oeste 10 Sudoeste 0 -- -- 83
2019-06-09 03:00:00 20 4 Sudoeste 8 Oeste 0 -- -- 84
2019-06-09 02:00:00 20 3 Sudoeste 10 Oeste 0 -- -- 84
2019-06-09 01:00:00 20.2 5 Sudoeste 13 Sudoeste 0 -- -- 83
2019-06-09 00:00:00 20 10 Sudeste 16 Este 0 -- -- 84
2019-06-08 23:00:00 20 12 Sudeste 22 Sudeste 0 -- -- 83
2019-06-08 22:00:00 20.3 16 Sudeste 23 Sudeste 0 -- -- 81
2019-06-08 21:00:00 21.1 14 Sudeste 26 Sudeste 0 -- -- 76
2019-06-08 20:00:00 21.2 20 Sudeste 30 Sudeste 0 -- -- 75
2019-06-08 19:00:00 21.4 17 Sudeste 26 Sudeste 0 -- -- 76
2019-06-08 18:00:00 23.5 10 Sur 20 Sur 0 -- -- 66
2019-06-08 17:00:00 24 8 Sudoeste 17 Sudoeste 0 -- -- 65
2019-06-08 16:00:00 24.4 8 Sudoeste 18 Sudoeste 0 -- -- 65
2019-06-08 15:00:00 23.9 10 Sudoeste 22 Sudoeste 0 -- -- 67
2019-06-08 14:00:00 23 13 Sur 24 Sudeste 0 -- -- 70
2019-06-08 13:00:00 20.6 18 Sudeste 33 Sudeste 0 -- -- 78
2019-06-08 12:00:00 20.9 13 Sudeste 35 Sudeste 0 -- -- 76
2019-06-08 11:00:00 20.7 22 Sudeste 31 Sudeste 0 -- -- 72
2019-06-08 10:00:00 22 20 Sudeste 27 Sudeste 0 -- -- 65
2019-06-08 09:00:00 22.8 0 Calma 6 Sudeste 0 -- -- 62
2019-06-08 08:00:00 19.6 0 Calma 8 Noroeste 0 -- -- 69
2019-06-08 07:00:00 17.8 3 Norte 16 Noroeste 0 -- -- 75
2019-06-08 06:00:00 18.1 5 Noroeste 17 Oeste 0 -- -- 77
2019-06-08 05:00:00 17.6 3 Noroeste 13 Norte 0 -- -- 78
2019-06-08 04:00:00 18.4 4 Noroeste 12 Oeste 0 -- -- 74
2019-06-08 03:00:00 18.5 4 Oeste 11 Sudeste 0 -- -- 77
2019-06-08 02:00:00 18.1 4 Este 6 Este 0 -- -- 76
2019-06-08 01:00:00 18.4 4 Nordeste 7 Este 0 -- -- 77
2019-06-08 00:00:00 19.4 6 Sudoeste 10 Sudoeste 0 -- -- 69
2019-06-07 23:00:00 19.9 4 Oeste 10 Oeste 0 -- -- 67
2019-06-07 22:00:00 21.5 4 Noroeste 19 Noroeste 0 -- -- 58
2019-06-07 21:00:00 22.4 11 Noroeste 31 Oeste 0 -- -- 56
2019-06-07 20:00:00 23.1 15 Oeste 37 Oeste 0 -- -- 55
2019-06-07 19:00:00 23.1 21 Oeste 36 Sudoeste 0 -- -- 56
2019-06-07 18:00:00 24.2 14 Oeste 30 Oeste 0 -- -- 54
2019-06-07 17:00:00 23.9 8 Sudoeste 17 Sudoeste 0 -- -- 59
2019-06-07 16:00:00 23.1 5 Sur 14 Sudeste 0 -- -- 64
2019-06-07 15:00:00 22.3 8 Sur 18 Sudoeste 0 -- -- 66
2019-06-07 14:00:00 23.3 10 Sudoeste 35 Sudoeste 0 -- -- 62
2019-06-07 13:00:00 24.3 14 Oeste 40 Sudoeste 0 -- -- 58
2019-06-07 12:00:00 24 21 Oeste 39 Oeste 0 -- -- 57
2019-06-07 11:00:00 25 18 Oeste 33 Oeste 0 -- -- 50
2019-06-07 10:00:00 23 8 Sudoeste 23 Norte 0 -- -- 55
2019-06-07 09:00:00 24.9 10 Norte 27 Noroeste 0 -- -- 40
2019-06-07 08:00:00 22 13 Norte 29 Noroeste 0 -- -- 45
2019-06-07 07:00:00 16.9 9 Oeste 14 Oeste 0 -- -- 71
2019-06-07 06:00:00 16.4 2 Norte 12 Oeste 0 -- -- 73
2019-06-07 05:00:00 16 3 Noroeste 9 Noroeste 0 -- -- 74
2019-06-07 04:00:00 16.2 3 Norte 8 Norte 0 -- -- 75
2019-06-07 03:00:00 17 3 Norte 15 Noroeste 0 -- -- 71
2019-06-07 02:00:00 18.5 9 Noroeste 22 Oeste 0 -- -- 71
2019-06-07 01:00:00 18.9 10 Oeste 17 Oeste 0 -- -- 67
2019-06-07 00:00:00 19.3 8 Noroeste 11 Oeste 0 -- -- 65
2019-06-06 23:00:00 19.9 6 Noroeste 15 Oeste 0 -- -- 65
2019-06-06 22:00:00 20.9 5 Noroeste 21 Oeste 0 -- -- 48
2019-06-06 21:00:00 22.4 13 Oeste 32 Oeste 0 -- -- 44
2019-06-06 20:00:00 24.1 13 Oeste 28 Oeste 0 -- -- 41
2019-06-06 19:00:00 24.5 15 Oeste 29 Oeste 0 -- -- 44
2019-06-06 18:00:00 25.2 8 Sudoeste 21 Oeste 0 -- -- 40
2019-06-06 17:00:00 25 9 Oeste 19 Sur 0 -- -- 45
2019-06-06 16:00:00 23.7 9 Sudoeste 22 Sudoeste 0 -- -- 56
2019-06-06 15:00:00 23 10 Sudoeste 19 Sudoeste 0 -- -- 62
2019-06-06 14:00:00 25.8 6 Sudoeste 15 Sur 0 -- -- 55
2019-06-06 13:00:00 24.2 6 Sur 13 Sudeste 0 -- -- 58
2019-06-06 12:00:00 24.4 6 Sur 13 Sudoeste 0 -- -- 57
2019-06-06 11:00:00 22.9 11 Sudoeste 15 Sudoeste 0 -- -- 64
2019-06-06 10:00:00 24.6 3 Sudeste 15 Sudeste 0 -- -- 52
2019-06-06 09:00:00 25.8 3 Este 13 Noroeste 0 -- -- 33
2019-06-06 08:00:00 19.9 4 Este 13 Oeste 0 -- -- 55
2019-06-06 07:00:00 17.9 5 Oeste 16 Oeste 0 -- -- 46
2019-06-06 06:00:00 18.4 10 Oeste 17 Oeste 0 -- -- 50
2019-06-06 05:00:00 18.1 4 Oeste 11 Sudoeste 0 -- -- 53
2019-06-06 04:00:00 19.3 4 Noroeste 12 Noroeste 0 -- -- 41
2019-06-06 03:00:00 18.6 4 Noroeste 9 Noroeste 0 -- -- 56
2019-06-06 02:00:00 19 4 Oeste 8 Sudoeste 0 -- -- 59
2019-06-06 01:00:00 18.2 0 Calma 7 Norte 0 -- -- 69
2019-06-06 00:00:00 19.3 3 Noroeste 20 Noroeste 0 -- -- 68
2019-06-05 23:00:00 20 13 Noroeste 28 Oeste 0 -- -- 69
2019-06-05 22:00:00 20.1 17 Oeste 38 Oeste 0 -- -- 68
2019-06-05 21:00:00 20.7 24 Oeste 47 Sudoeste 0 -- -- 66
2019-06-05 20:00:00 21.3 26 Oeste 50 Oeste 0 -- -- 63
2019-06-05 19:00:00 22.1 28 Oeste 50 Sudoeste 0 -- -- 58
2019-06-05 18:00:00 22.5 31 Oeste 49 Sudoeste 0 -- -- 58
2019-06-05 17:00:00 23.9 19 Oeste 45 Sudoeste 0 -- -- 51
2019-06-05 16:00:00 23.6 24 Oeste 45 Oeste 0 -- -- 50
2019-06-05 15:00:00 23.7 17 Oeste 47 Oeste 0 -- -- 50
2019-06-05 14:00:00 25 19 Oeste 42 Oeste 0 -- -- 43
2019-06-05 13:00:00 24.8 22 Oeste 46 Oeste 0 -- -- 41
2019-06-05 12:00:00 23.7 15 Oeste 42 Oeste 0 -- -- 47
2019-06-05 11:00:00 26.2 25 Oeste 45 Noroeste 0 -- -- 33
2019-06-05 10:00:00 25.3 25 Noroeste 41 Oeste 0 -- -- 29
2019-06-05 09:00:00 24.2 17 Noroeste 39 Oeste 0 -- -- 38
2019-06-05 08:00:00 22.8 22 Noroeste 37 Noroeste 0 -- -- 44
2019-06-05 07:00:00 20.3 15 Oeste 28 Oeste 0 -- -- 70
2019-06-05 06:00:00 20.2 21 Oeste 40 Oeste 0 -- -- 78
2019-06-05 05:00:00 20.1 10 Oeste 29 Oeste 0 -- -- 78
2019-06-05 04:00:00 20.1 11 Oeste 27 Oeste 0 -- -- 79
2019-06-05 03:00:00 20.4 16 Oeste 30 Oeste 0 -- -- 79
2019-06-05 02:00:00 20.7 10 Oeste 34 Oeste 0 -- -- 76
2019-06-05 01:00:00 21.5 18 Oeste 30 Oeste 0 -- -- 73
2019-06-05 00:00:00 21.8 5 Oeste 12 Oeste 0 -- -- 69
2019-06-04 23:00:00 21.9 3 Sudeste 7 Oeste 0 -- -- 72
2019-06-04 22:00:00 22.6 5 Oeste 10 Oeste 0 -- -- 67
2019-06-04 21:00:00 23.3 4 Oeste 14 Sudoeste 0 -- -- 65
2019-06-04 20:00:00 23.8 5 Sur 12 Oeste 0 -- -- 65
2019-06-04 19:00:00 24 5 Sur 14 Sudoeste 0 -- -- 64
2019-06-04 18:00:00 24 5 Sudeste 10 Sudeste 0 -- -- 62
2019-06-04 17:00:00 23.9 5 Sur 11 Sudeste 0 -- -- 66
2019-06-04 16:00:00 23.4 6 Sudeste 15 Sudoeste 0 -- -- 66
2019-06-04 15:00:00 24.6 9 Sudoeste 18 Sudoeste 0 -- -- 64
2019-06-04 14:00:00 24.7 9 Sudoeste 17 Sudoeste 0 -- -- 64
2019-06-04 13:00:00 25.8 10 Sudoeste 17 Sudoeste 0 -- -- 62
2019-06-04 12:00:00 25.5 9 Sudoeste 15 Sudoeste 0 -- -- 55
2019-06-04 11:00:00 24.9 8 Oeste 17 Oeste 0 -- -- 54
2019-06-04 10:00:00 24.8 6 Sudoeste 12 Sudoeste 0 -- -- 50
2019-06-04 09:00:00 24.3 2 Norte 8 Nordeste 0 -- -- 50
2019-06-04 08:00:00 20.4 0 Calma 8 Nordeste 0 -- -- 57
2019-06-04 07:00:00 15.7 3 Norte 7 Nordeste 0 -- -- 71
2019-06-04 06:00:00 15.9 3 Nordeste 5 Norte 0 -- -- 72
2019-06-04 05:00:00 16.6 3 Noroeste 6 Oeste 0 -- -- 69
2019-06-04 04:00:00 17.1 0 Calma 5 Norte 0 -- -- 71
2019-06-04 03:00:00 17.4 0 Calma 4 Nordeste 0 -- -- 70
2019-06-04 02:00:00 17.8 0 Calma 4 Noroeste 0 -- -- 70
2019-06-04 01:00:00 18.7 0 Calma 5 Nordeste 0 -- -- 70
2019-06-04 00:00:00 19.4 0 Calma 9 Noroeste 0 -- -- 71
2019-06-03 23:00:00 21 5 Oeste 8 Oeste 0 -- -- 70
2019-06-03 22:00:00 21.3 4 Oeste 11 Sudoeste 0 -- -- 61
2019-06-03 21:00:00 22.6 2 Sudoeste 10 Oeste 0 -- -- 60
2019-06-03 20:00:00 23.7 6 Sudoeste 15 Sudoeste 0 -- -- 65
2019-06-03 19:00:00 23.8 9 Sudoeste 14 Sudoeste 0 -- -- 68
2019-06-03 18:00:00 23.1 6 Sur 11 Sur 0 -- -- 69
2019-06-03 17:00:00 22.9 6 Sur 12 Sur 0 -- -- 70
2019-06-03 16:00:00 23.2 7 Sur 13 Sur 0 -- -- 67
2019-06-03 15:00:00 23.2 8 Sur 13 Sur 0 -- -- 68
2019-06-03 14:00:00 23.7 9 Sur 15 Sur 0 -- -- 67
2019-06-03 13:00:00 24.2 10 Sur 15 Sur 0 -- -- 66
2019-06-03 12:00:00 24.3 8 Sur 14 Sudeste 0 -- -- 65
2019-06-03 11:00:00 24.4 10 Sur 14 Sur 0 -- -- 60
2019-06-03 10:00:00 24.2 5 Sudeste 7 Sudeste 0 -- -- 49
2019-06-03 09:00:00 25.4 0 Calma 8 Nordeste 0 -- -- 42
2019-06-03 08:00:00 19.9 4 Nordeste 8 Nordeste 0 -- -- 55
2019-06-03 07:00:00 16.5 2 Norte 5 Norte 0 -- -- 69
2019-06-03 06:00:00 16.8 0 Calma 5 Este 0 -- -- 65
2019-06-03 05:00:00 17.3 0 Calma 4 Este 0 -- -- 66
2019-06-03 04:00:00 17.5 0 Calma 4 Nordeste 0 -- -- 66
2019-06-03 03:00:00 17.9 2 Norte 4 Norte 0 -- -- 66
2019-06-03 02:00:00 18.3 0 Calma 4 Este 0 -- -- 67
2019-06-03 01:00:00 19.1 3 Este 4 Este 0 -- -- 69
2019-06-03 00:00:00 19.7 0 Calma 5 Nordeste 0 -- -- 66
2019-06-02 23:00:00 20.3 3 Nordeste 7 Noroeste 0 -- -- 63
2019-06-02 22:00:00 21.4 4 Oeste 9 Oeste 0 -- -- 55
2019-06-02 21:00:00 22.2 5 Sudoeste 8 Sur 0 -- -- 57
2019-06-02 20:00:00 23.5 6 Sur 9 Sur 0 -- -- 51
2019-06-02 19:00:00 24.9 5 Sudoeste 12 Sudoeste 0 -- -- 45
2019-06-02 18:00:00 24.7 8 Sudoeste 15 Oeste 0 -- -- 46
2019-06-02 17:00:00 24.7 9 Sudoeste 16 Sudoeste 0 -- -- 48
2019-06-02 16:00:00 24.9 8 Sudoeste 15 Sudoeste 0 -- -- 47
2019-06-02 15:00:00 25.5 9 Sudoeste 18 Sudoeste 0 -- -- 47
2019-06-02 14:00:00 25.4 10 Sudoeste 19 Sudoeste 0 -- -- 53
2019-06-02 13:00:00 25.8 9 Sudoeste 19 Sudoeste 0 -- -- 45
2019-06-02 12:00:00 26.2 8 Sudoeste 16 Sudoeste 0 -- -- 48
2019-06-02 11:00:00 24.6 9 Sudoeste 16 Sudoeste 0 -- -- 47
2019-06-02 10:00:00 24.7 6 Sudeste 8 Sudeste 0 -- -- 51
2019-06-02 09:00:00 24.4 0 Calma 7 Noroeste 0 -- -- 47
2019-06-02 08:00:00 21.5 0 Calma 2 Sudeste 0 -- -- 55
2019-06-02 07:00:00 16.2 0 Calma 2 Norte 0 -- -- 68
2019-06-02 06:00:00 16.6 0 Calma 5 Nordeste 0 -- -- 68
2019-06-02 05:00:00 16.9 2 Nordeste 3 Norte 0 -- -- 70
2019-06-02 04:00:00 17.3 0 Calma 6 Nordeste 0 -- -- 66
2019-06-02 03:00:00 17.8 2 Este 4 Nordeste 0 -- -- 68
2019-06-02 02:00:00 18.3 2 Nordeste 5 Este 0 -- -- 64
2019-06-02 01:00:00 19 0 Calma 4 Este 0 -- -- 66
2019-06-02 00:00:00 19.5 2 Nordeste 10 Noroeste 0 -- -- 66
2019-06-01 23:00:00 20.2 0 Calma 9 Noroeste 0 -- -- 65
2019-06-01 22:00:00 20.9 4 Nordeste 28 Sudeste 0 -- -- 57
2019-06-01 21:00:00 21.6 25 Sudeste 32 Sudeste 0 -- -- 63
2019-06-01 20:00:00 23.4 11 Sur 27 Sur 0 -- -- 51
2019-06-01 19:00:00 24.3 9 Sudoeste 28 Sur 0 -- -- 50
2019-06-01 18:00:00 23.9 11 Sudoeste 22 Sudoeste 0 -- -- 51
2019-06-01 17:00:00 23.2 13 Sudeste 20 Sur 0 -- -- 54
2019-06-01 16:00:00 24.7 9 Sudoeste 19 Sudoeste 0 -- -- 45
2019-06-01 15:00:00 24.8 11 Sudoeste 23 Sudoeste 0 -- -- 43
2019-06-01 14:00:00 25.3 12 Sur 21 Sur 0 -- -- 41
2019-06-01 13:00:00 25.5 12 Sur 20 Sur 0 -- -- 40
2019-06-01 12:00:00 25.2 11 Sur 18 Sur 0 -- -- 44
2019-06-01 11:00:00 25.6 9 Sur 14 Sur 0 -- -- 43
2019-06-01 10:00:00 24.6 5 Sudoeste 10 Oeste 0 -- -- 53
2019-06-01 09:00:00 23.9 0 Calma 4 Este 0 -- -- 59
2019-06-01 08:00:00 19.5 0 Calma 4 Noroeste 0 -- -- 75
2019-06-01 07:00:00 16.6 3 Nordeste 8 Nordeste 0 -- -- 82
2019-06-01 06:00:00 16.5 2 Norte 4 Noroeste 0 -- -- 82
2019-06-01 05:00:00 16.9 0 Calma 4 Este 0 -- -- 81
2019-06-01 04:00:00 17.1 2 Nordeste 4 Nordeste 0 -- -- 81
2019-06-01 03:00:00 17.9 0 Calma 5 Este 0 -- -- 81
2019-06-01 02:00:00 18.4 3 Nordeste 6 Este 2.6 -- -- 79
2019-06-01 01:00:00 19.7 5 Noroeste 10 Oeste 0 -- -- 78
2019-06-01 00:00:00 20 7 Noroeste 21 Noroeste 0 -- -- 75
2019-05-31 23:00:00 20.4 8 Noroeste 21 Noroeste 0 -- -- 74
2019-05-31 22:00:00 21.3 6 Noroeste 21 Sudeste 0 -- -- 67
2019-05-31 21:00:00 22.3 15 Sudeste 26 Sudeste 0 -- -- 60
2019-05-31 20:00:00 25.4 6 Sudoeste 31 Sudeste 0 -- -- 50
2019-05-31 19:00:00 23.3 24 Sudeste 34 Sudeste 0 -- -- 58
2019-05-31 18:00:00 22.7 21 Sudeste 33 Sudeste 0 -- -- 61
2019-05-31 17:00:00 22.1 24 Sudeste 33 Sudeste 0 -- -- 62
2019-05-31 16:00:00 22.2 26 Sudeste 42 Sudeste 0 -- -- 62
2019-05-31 15:00:00 23.5 25 Sudeste 46 Sudeste 0 -- -- 53
2019-05-31 14:00:00 23 32 Sudeste 44 Sudeste 0 -- -- 55
2019-05-31 13:00:00 23.6 28 Sudeste 44 Este 0 -- -- 53
2019-05-31 12:00:00 23.4 29 Sudeste 38 Sudeste 0 -- -- 50
2019-05-31 11:00:00 25.7 5 Sudeste 10 Sudoeste 0 -- -- 45
2019-05-31 10:00:00 24.9 6 Sudoeste 10 Sudoeste 0 -- -- 46
2019-05-31 09:00:00 24.1 4 Oeste 7 Oeste 0 -- -- 53
2019-05-31 08:00:00 19.5 0 Calma 5 Norte 0 -- -- 69
2019-05-31 07:00:00 15.9 2 Nordeste 6 Nordeste 0 -- -- 79
2019-05-31 06:00:00 15.8 2 Norte 5 Norte 0 -- -- 78
2019-05-31 05:00:00 16.3 4 Nordeste 8 Nordeste 0 -- -- 78
2019-05-31 04:00:00 16.5 2 Este 7 Nordeste 0 -- -- 77
2019-05-31 03:00:00 17.3 0 Calma 4 Noroeste 0 -- -- 75
2019-05-31 02:00:00 17.4 2 Norte 5 Este 0 -- -- 73
2019-05-31 01:00:00 18.3 4 Sudeste 5 Este 0 -- -- 74
2019-05-31 00:00:00 19 3 Nordeste 6 Nordeste 0 -- -- 73
2019-05-30 23:00:00 19.6 2 Norte 22 Este 0 -- -- 71
2019-05-30 22:00:00 20.3 14 Sudeste 26 Sudeste 0 -- -- 69
2019-05-30 21:00:00 21 17 Sudeste 24 Sur 0 -- -- 64
2019-05-30 20:00:00 22 21 Sudeste 31 Sudeste 0 -- -- 55
2019-05-30 19:00:00 22.4 14 Sudeste 30 Sudeste 0 -- -- 54
2019-05-30 18:00:00 22.4 22 Sudeste 40 Este 0 -- -- 56
2019-05-30 17:00:00 22.5 25 Este 45 Este 0 -- -- 52
2019-05-30 16:00:00 22.6 29 Sudeste 42 Sudeste 0 -- -- 51
2019-05-30 15:00:00 23.1 27 Sudeste 45 Este 0 -- -- 47
2019-05-30 14:00:00 22.3 28 Sudeste 40 Sudeste 0 -- -- 55
2019-05-30 13:00:00 23 28 Este 39 Este 0 -- -- 50
2019-05-30 12:00:00 21.4 25 Sudeste 31 Sudeste 0 -- -- 64
2019-05-30 11:00:00 22.2 16 Sudeste 30 Sudeste 0 -- -- 59
2019-05-30 10:00:00 21.5 23 Sudeste 31 Sudeste 0 -- -- 66
2019-05-30 09:00:00 22.3 3 Sudeste 7 Sudeste 0 -- -- 64
2019-05-30 08:00:00 19.7 0 Calma 5 Norte 0 -- -- 74
2019-05-30 07:00:00 16.6 3 Nordeste 7 Sudeste 0 -- -- 76
2019-05-30 06:00:00 17.2 2 Este 5 Nordeste 0 -- -- 77
2019-05-30 05:00:00 17.6 2 Nordeste 5 Nordeste 0 -- -- 74
2019-05-30 04:00:00 18 2 Norte 8 Sudeste 0 -- -- 71
2019-05-30 03:00:00 18.5 4 Este 15 Este 0 -- -- 67
2019-05-30 02:00:00 19.1 8 Este 15 Este 0 -- -- 67
2019-05-30 01:00:00 19.4 7 Este 18 Este 0 -- -- 68
2019-05-30 00:00:00 19.8 14 Este 21 Este 0 -- -- 73
2019-05-29 23:00:00 19.7 11 Este 21 Este 0 -- -- 74
2019-05-29 22:00:00 19.9 15 Este 28 Este 0 -- -- 74
2019-05-29 21:00:00 20.2 21 Sudeste 39 Sudeste 0 -- -- 71
2019-05-29 20:00:00 20.8 28 Sudeste 41 Sudeste 0 -- -- 69
2019-05-29 19:00:00 21.5 26 Sudeste 42 Sudeste 0 -- -- 60
2019-05-29 18:00:00 21.8 29 Sudeste 40 Sudeste 0 -- -- 64
2019-05-29 17:00:00 21.3 31 Sudeste 44 Sudeste 0 -- -- 74
2019-05-29 16:00:00 21.4 34 Sudeste 46 Sudeste 0 -- -- 70
2019-05-29 15:00:00 21.9 29 Sudeste 38 Sudeste 0 -- -- 71
2019-05-29 14:00:00 22.3 28 Sudeste 46 Sudeste 0 -- -- 66
2019-05-29 13:00:00 22.7 23 Sudeste 35 Sudeste 0 -- -- 63
2019-05-29 12:00:00 24 27 Sudeste 33 Sudeste 0 -- -- 55
2019-05-29 11:00:00 25.9 7 Sudoeste 13 Sudoeste 0 -- -- 59
2019-05-29 10:00:00 24.6 6 Sur 12 Sudoeste 0 -- -- 65
2019-05-29 09:00:00 23.4 4 Sudeste 6 Sur 0 -- -- 68
2019-05-29 08:00:00 21 0 Calma 7 Norte 0 -- -- 75
2019-05-29 07:00:00 18.3 4 Sudeste 8 Norte 0 -- -- 82
2019-05-29 06:00:00 18.7 0 Calma 7 Norte 0 -- -- 80
2019-05-29 05:00:00 18.5 4 Nordeste 10 Este 0 -- -- 79
2019-05-29 04:00:00 19 4 Norte 14 Este 0 -- -- 80
2019-05-29 03:00:00 19.3 2 Noroeste 6 Este 0 -- -- 79
2019-05-29 02:00:00 19.4 2 Noroeste 8 Sudoeste 0 -- -- 76
2019-05-29 01:00:00 19.6 0 Calma 5 Nordeste 0 -- -- 82
2019-05-29 00:00:00 20.5 3 Oeste 6 Oeste 0 -- -- 82
2019-05-28 23:00:00 20.9 4 Noroeste 10 Noroeste 0 -- -- 80
2019-05-28 22:00:00 20.8 4 Norte 22 Sudeste 0 -- -- 81
2019-05-28 21:00:00 20.9 21 Sudeste 26 Sudeste 0 -- -- 80
2019-05-28 20:00:00 21.3 18 Sudeste 26 Sudeste 0 -- -- 79
2019-05-28 19:00:00 22.9 7 Sudoeste 21 Sudeste 0 -- -- 77
2019-05-28 18:00:00 21.8 13 Sudeste 28 Sudeste 0 -- -- 80
2019-05-28 17:00:00 22.2 14 Sur 29 Sudeste 0 -- -- 80
2019-05-28 16:00:00 21.4 20 Sudeste 31 Sudeste 0 -- -- 80
2019-05-28 15:00:00 21.7 21 Sudeste 36 Sudeste 0 -- -- 76
2019-05-28 14:00:00 21.4 25 Sudeste 36 Sudeste 0 -- -- 78
2019-05-28 13:00:00 21.3 26 Sudeste 33 Sudeste 0 -- -- 75
2019-05-28 12:00:00 20.6 25 Sudeste 36 Sudeste 0 -- -- 79
2019-05-28 11:00:00 21.4 23 Sudeste 29 Sudeste 0 -- -- 73
2019-05-28 10:00:00 22.8 8 Sudeste 10 Sudeste 0 -- -- 63
2019-05-28 09:00:00 23.9 2 Sur 6 Sudeste 0 -- -- 59
2019-05-28 08:00:00 20.8 2 Sudeste 6 Sudeste 0 -- -- 69
2019-05-28 07:00:00 18 3 Norte 6 Nordeste 0 -- -- 78
2019-05-28 06:00:00 17.9 5 Nordeste 8 Norte 0 -- -- 75
2019-05-28 05:00:00 17.8 0 Calma 4 Este 0 -- -- 73
2019-05-28 04:00:00 18.2 0 Calma 4 Norte 0 -- -- 71
2019-05-28 03:00:00 18.3 2 Nordeste 4 Nordeste 0 -- -- 72
2019-05-28 02:00:00 18.9 0 Calma 5 Norte 0 -- -- 72
2019-05-28 01:00:00 19.2 0 Calma 4 Nordeste 0 -- -- 72
2019-05-28 00:00:00 19.8 0 Calma 5 Sudoeste 0 -- -- 71
2019-05-27 23:00:00 20.7 3 Sudoeste 7 Noroeste 0 -- -- 67
2019-05-27 22:00:00 21.3 5 Oeste 9 Sudoeste 0 -- -- 63
2019-05-27 21:00:00 22.3 7 Sudoeste 11 Sudoeste 0 -- -- 58
2019-05-27 20:00:00 23.1 5 Sudoeste 9 Sudeste 0 -- -- 41
2019-05-27 19:00:00 24.9 6 Sudoeste 10 Sudoeste 0 -- -- 46
2019-05-27 18:00:00 24.1 6 Sur 13 Sudoeste 0 -- -- 56
2019-05-27 17:00:00 24.4 6 Sur 14 Sudoeste 0 -- -- 53
2019-05-27 16:00:00 25.2 7 Sudoeste 13 Sudoeste 0 -- -- 51
2019-05-27 15:00:00 25.3 7 Sudoeste 16 Sudoeste 0 -- -- 51
2019-05-27 14:00:00 25.8 6 Sudoeste 13 Sudoeste 0 -- -- 52
2019-05-27 13:00:00 25.3 7 Sur 11 Sudoeste 0 -- -- 53
2019-05-27 12:00:00 26 5 Sudoeste 10 Sur 0 -- -- 52
2019-05-27 11:00:00 24.9 5 Sudoeste 10 Sudoeste 0 -- -- 50
2019-05-27 10:00:00 23.7 5 Sudoeste 9 Sudoeste 0 -- -- 50
2019-05-27 09:00:00 23.2 2 Sudeste 5 Nordeste 0 -- -- 46
2019-05-27 08:00:00 19.9 0 Calma 3 Norte 0 -- -- 64
2019-05-27 07:00:00 16.1 2 Norte 8 Este 0 -- -- 69
2019-05-27 06:00:00 17 3 Sudeste 5 Este 0 -- -- 71
2019-05-27 05:00:00 17.1 2 Norte 7 Sudoeste 0 -- -- 70
2019-05-27 04:00:00 16.9 0 Calma 6 Norte 0 -- -- 73
2019-05-27 03:00:00 16.8 3 Nordeste 7 Este 0 -- -- 70
2019-05-27 02:00:00 17.9 3 Este 12 Oeste 0 -- -- 77
2019-05-27 01:00:00 18.4 6 Noroeste 12 Oeste 0 -- -- 70
2019-05-27 00:00:00 18.9 0 Calma 7 Oeste 0 -- -- 77
2019-05-26 23:00:00 19.8 4 Sudoeste 8 Oeste 0 -- -- 74
2019-05-26 22:00:00 20.4 3 Oeste 9 Noroeste 0 -- -- 71
2019-05-26 21:00:00 21.7 5 Oeste 10 Oeste 0 -- -- 65
2019-05-26 20:00:00 22.7 5 Sur 10 Sudoeste 0 -- -- 64
2019-05-26 19:00:00 23.2 6 Sur 12 Sur 0 -- -- 62
2019-05-26 18:00:00 22.7 8 Sur 12 Sur 0 -- -- 63
2019-05-26 17:00:00 23.5 6 Sudoeste 13 Sur 0 -- -- 60
2019-05-26 16:00:00 22.9 8 Sur 14 Sur 0 -- -- 62
2019-05-26 15:00:00 23.9 7 Sur 15 Sudoeste 0 -- -- 57
2019-05-26 14:00:00 24.9 8 Sudoeste 14 Sudoeste 0 -- -- 53
2019-05-26 13:00:00 25.3 6 Sudoeste 13 Sudoeste 0 -- -- 50
2019-05-26 12:00:00 23.9 9 Sudoeste 14 Sudoeste 0 -- -- 54
2019-05-26 11:00:00 24.9 5 Sudoeste 15 Sudoeste 0 -- -- 49
2019-05-26 10:00:00 24.4 7 Oeste 14 Oeste 0 -- -- 41
2019-05-26 09:00:00 22.5 0 Calma 3 Sudeste 0 -- -- 53
2019-05-26 08:00:00 19.3 0 Calma 3 Sudoeste 0 -- -- 67
2019-05-26 07:00:00 16.1 3 Nordeste 9 Nordeste 0 -- -- 70
2019-05-26 06:00:00 16 2 Nordeste 5 Nordeste 0 -- -- 73
2019-05-26 05:00:00 16.4 0 Calma 4 Este 0 -- -- 74
2019-05-26 04:00:00 16.8 3 Este 5 Este 0 -- -- 73
2019-05-26 03:00:00 17 0 Calma 4 Norte 0 -- -- 75
2019-05-26 02:00:00 18.2 2 Noroeste 5 Noroeste 0 -- -- 75
2019-05-26 01:00:00 17.8 0 Calma 9 Este 0 -- -- 71
2019-05-26 00:00:00 18.4 4 Este 5 Este 0 -- -- 78